Terminal Aerodrome Forecast
Issued by NWS Blacksburg, VA

Home | Current Version | Previous Version | Text Only | Print | Product List | Glossary On
Versions: 1 2 3 4 5 6 7 8 9 10 11 12 13 14 15 16 17 18
000
FTUS41 KRNK 251720
TAFBLF
TAF
KBLF 251720Z 2518/2618 28008KT P6SM SCT030 BKN050
     FM252200 28008KT P6SM BKN025
     FM260300 28006KT P6SM OVC015
     FM261200 30010KT P6SM SCT025
     FM261500 30012G22KT P6SM SKC=

USA.gov is the U.S. government's official web portal to all federal, state and local government web resources and services.